sensor_id;sensor_type;location;lat;lon;timestamp;P1;durP1;ratioP1;P2;durP2;ratioP2
20166;SDS011;10243;49.118;8.508;2023-05-07T00:00:01;1.30;;;1.20;;
20166;SDS011;10243;49.118;8.508;2023-05-07T00:00:23;1.00;;;1.00;;
20166;SDS011;10243;49.118;8.508;2023-05-07T00:00:44;1.05;;;1.02;;
20166;SDS011;10243;49.118;8.508;2023-05-07T00:01:04;1.40;;;1.30;;
20166;SDS011;10243;49.118;8.508;2023-05-07T00:01:28;1.20;;;1.10;;
20166;SDS011;10243;49.118;8.508;2023-05-07T00:01:49;0.90;;;0.90;;
20166;SDS011;10243;49.118;8.508;2023-05-07T00:02:10;1.10;;;1.10;;
20166;SDS011;10243;49.118;8.508;2023-05-07T00:02:30;1.02;;;1.02;;
20166;SDS011;10243;49.118;8.508;2023-05-07T00:02:51;1.10;;;1.00;;
20166;SDS011;10243;49.118;8.508;2023-05-07T00:03:11;1.10;;;1.00;;
20166;SDS011;10243;49.118;8.508;2023-05-07T00:03:33;1.63;;;1.10;;
20166;SDS011;10243;49.118;8.508;2023-05-07T00:03:55;1.15;;;1.10;;
20166;SDS011;10243;49.118;8.508;2023-05-07T00:04:15;0.97;;;0.97;;
20166;SDS011;10243;49.118;8.508;2023-05-07T00:04:36;1.20;;;1.10;;
20166;SDS011;10243;49.118;8.508;2023-05-07T00:04:57;1.38;;;1.27;;
20166;SDS011;10243;49.118;8.508;2023-05-07T00:05:19;1.52;;;1.30;;
20166;SDS011;10243;49.118;8.508;2023-05-07T00:05:39;1.40;;;1.20;;
20166;SDS011;10243;49.118;8.508;2023-05-07T00:06:00;1.30;;;1.20;;
20166;SDS011;10243;49.118;8.508;2023-05-07T00:06:20;1.30;;;1.20;;
20166;SDS011;10243;49.118;8.508;2023-05-07T00:06:41;1.10;;;1.10;;
20166;SDS011;10243;49.118;8.508;2023-05-07T00:07:02;1.23;;;1.13;;
20166;SDS011;10243;49.118;8.508;2023-05-07T00:07:24;1.10;;;1.10;;
20166;SDS011;10243;49.118;8.508;2023-05-07T00:07:45;0.90;;;0.90;;
20166;SDS011;10243;49.118;8.508;2023-05-07T00:08:05;1.17;;;1.10;;
20166;SDS011;10243;49.118;8.508;2023-05-07T00:08:26;1.30;;;1.20;;
20166;SDS011;10243;49.118;8.508;2023-05-07T00:08:48;1.70;;;1.13;;
20166;SDS011;10243;49.118;8.508;2023-05-07T00:09:09;1.73;;;1.10;;
20166;SDS011;10243;49.118;8.508;2023-05-07T00:09:32;1.25;;;1.15;;
20166;SDS011;10243;49.118;8.508;2023-05-07T00:09:52;0.90;;;0.90;;
20166;SDS011;10243;49.118;8.508;2023-05-07T00:10:13;1.77;;;1.00;;
20166;SDS011;10243;49.118;8.508;2023-05-07T00:10:34;1.97;;;1.00;;
20166;SDS011;10243;49.118;8.508;2023-05-07T00:10:54;1.25;;;1.13;;
20166;SDS011;10243;49.118;8.508;2023-05-07T00:11:15;1.20;;;1.10;;
20166;SDS011;10243;49.118;8.508;2023-05-07T00:11:36;1.40;;;1.30;;
20166;SDS011;10243;49.118;8.508;2023-05-07T00:12:01;2.10;;;1.30;;
20166;SDS011;10243;49.118;8.508;2023-05-07T00:12:21;1.20;;;1.10;;
20166;SDS011;10243;49.118;8.508;2023-05-07T00:12:42;1.23;;;1.13;;
20166;SDS011;10243;49.118;8.508;2023-05-07T00:13:03;1.42;;;1.33;;
20166;SDS011;10243;49.118;8.508;2023-05-07T00:13:23;1.30;;;1.20;;
20166;SDS011;10243;49.118;8.508;2023-05-07T00:13:44;1.40;;;1.30;;
20166;SDS011;10243;49.118;8.508;2023-05-07T00:14:04;1.50;;;1.20;;
20166;SDS011;10243;49.118;8.508;2023-05-07T00:14:26;1.10;;;1.10;;
20166;SDS011;10243;49.118;8.508;2023-05-07T00:14:46;1.20;;;1.10;;
20166;SDS011;10243;49.118;8.508;2023-05-07T00:15:07;2.03;;;1.13;;
20166;SDS011;10243;49.118;8.508;2023-05-07T00:15:27;1.98;;;1.13;;
20166;SDS011;10243;49.118;8.508;2023-05-07T00:15:48;1.00;;;1.00;;
20166;SDS011;10243;49.118;8.508;2023-05-07T00:16:09;0.90;;;0.90;;
20166;SDS011;10243;49.118;8.508;2023-05-07T00:16:29;0.93;;;0.93;;
20166;SDS011;10243;49.118;8.508;2023-05-07T00:16:50;1.03;;;1.03;;
20166;SDS011;10243;49.118;8.508;2023-05-07T00:17:10;1.05;;;1.00;;
20166;SDS011;10243;49.118;8.508;2023-05-07T00:17:32;1.15;;;1.00;;
20166;SDS011;10243;49.118;8.508;2023-05-07T00:17:53;1.17;;;1.08;;
20166;SDS011;10243;49.118;8.508;2023-05-07T00:18:13;0.90;;;0.90;;
20166;SDS011;10243;49.118;8.508;2023-05-07T00:18:36;0.90;;;0.90;;
20166;SDS011;10243;49.118;8.508;2023-05-07T00:18:57;1.02;;;1.00;;
20166;SDS011;10243;49.118;8.508;2023-05-07T00:19:17;1.23;;;1.00;;
20166;SDS011;10243;49.118;8.508;2023-05-07T00:19:38;1.00;;;1.00;;
20166;SDS011;10243;49.118;8.508;2023-05-07T00:19:59;0.80;;;0.80;;
20166;SDS011;10243;49.118;8.508;2023-05-07T00:20:19;1.25;;;1.15;;
20166;SDS011;10243;49.118;8.508;2023-05-07T00:20:40;1.30;;;1.20;;
20166;SDS011;10243;49.118;8.508;2023-05-07T00:21:01;0.98;;;0.98;;
20166;SDS011;10243;49.118;8.508;2023-05-07T00:21:21;1.00;;;1.00;;
20166;SDS011;10243;49.118;8.508;2023-05-07T00:21:42;1.10;;;1.10;;
20166;SDS011;10243;49.118;8.508;2023-05-07T00:22:02;1.13;;;1.03;;
20166;SDS011;10243;49.118;8.508;2023-05-07T00:22:24;2.45;;;1.10;;
20166;SDS011;10243;49.118;8.508;2023-05-07T00:22:44;2.53;;;1.10;;
20166;SDS011;10243;49.118;8.508;2023-05-07T00:23:05;0.90;;;0.90;;
20166;SDS011;10243;49.118;8.508;2023-05-07T00:23:25;1.20;;;1.10;;
20166;SDS011;10243;49.118;8.508;2023-05-07T00:23:45;1.30;;;1.20;;
20166;SDS011;10243;49.118;8.508;2023-05-07T00:24:08;1.10;;;1.10;;
20166;SDS011;10243;49.118;8.508;2023-05-07T00:24:29;0.90;;;0.90;;
20166;SDS011;10243;49.118;8.508;2023-05-07T00:24:49;1.00;;;1.00;;
20166;SDS011;10243;49.118;8.508;2023-05-07T00:25:09;1.30;;;1.20;;
20166;SDS011;10243;49.118;8.508;2023-05-07T00:25:31;1.10;;;1.10;;
20166;SDS011;10243;49.118;8.508;2023-05-07T00:25:51;1.23;;;1.17;;
20166;SDS011;10243;49.118;8.508;2023-05-07T00:26:12;1.47;;;1.07;;
20166;SDS011;10243;49.118;8.508;2023-05-07T00:26:33;1.00;;;1.00;;
20166;SDS011;10243;49.118;8.508;2023-05-07T00:26:54;1.20;;;1.10;;
20166;SDS011;10243;49.118;8.508;2023-05-07T00:27:15;1.10;;;1.10;;
20166;SDS011;10243;49.118;8.508;2023-05-07T00:27:38;1.33;;;1.23;;
20166;SDS011;10243;49.118;8.508;2023-05-07T00:27:59;1.43;;;1.33;;
20166;SDS011;10243;49.118;8.508;2023-05-07T00:28:23;1.40;;;1.30;;
20166;SDS011;10243;49.118;8.508;2023-05-07T00:28:44;1.30;;;1.20;;
20166;SDS011;10243;49.118;8.508;2023-05-07T00:29:05;1.30;;;1.20;;
20166;SDS011;10243;49.118;8.508;2023-05-07T00:29:27;1.15;;;1.10;;
20166;SDS011;10243;49.118;8.508;2023-05-07T00:29:48;1.40;;;1.00;;
20166;SDS011;10243;49.118;8.508;2023-05-07T00:30:08;1.80;;;1.10;;
20166;SDS011;10243;49.118;8.508;2023-05-07T00:30:30;1.27;;;1.17;;
20166;SDS011;10243;49.118;8.508;2023-05-07T00:30:50;1.37;;;1.17;;
20166;SDS011;10243;49.118;8.508;2023-05-07T00:31:11;1.17;;;1.10;;
20166;SDS011;10243;49.118;8.508;2023-05-07T00:31:31;1.40;;;1.30;;
20166;SDS011;10243;49.118;8.508;2023-05-07T00:31:52;1.40;;;1.30;;
20166;SDS011;10243;49.118;8.508;2023-05-07T00:32:14;1.50;;;1.40;;
20166;SDS011;10243;49.118;8.508;2023-05-07T00:32:35;1.20;;;1.20;;
20166;SDS011;10243;49.118;8.508;2023-05-07T00:32:56;1.98;;;1.23;;
20166;SDS011;10243;49.118;8.508;2023-05-07T00:33:18;1.40;;;1.30;;
20166;SDS011;10243;49.118;8.508;2023-05-07T00:33:40;1.27;;;1.17;;
20166;SDS011;10243;49.118;8.508;2023-05-07T00:34:00;1.30;;;1.20;;
20166;SDS011;10243;49.118;8.508;2023-05-07T00:34:23;1.40;;;1.30;;
20166;SDS011;10243;49.118;8.508;2023-05-07T00:34:43;1.30;;;1.20;;
20166;SDS011;10243;49.118;8.508;2023-05-07T00:35:05;1.25;;;1.15;;
20166;SDS011;10243;49.118;8.508;2023-05-07T00:35:26;1.33;;;1.10;;
20166;SDS011;10243;49.118;8.508;2023-05-07T00:35:46;1.80;;;1.53;;
20166;SDS011;10243;49.118;8.508;2023-05-07T00:36:06;1.60;;;1.50;;
20166;SDS011;10243;49.118;8.508;2023-05-07T00:36:27;1.40;;;1.30;;
20166;SDS011;10243;49.118;8.508;2023-05-07T00:36:48;1.65;;;1.55;;
20166;SDS011;10243;49.118;8.508;2023-05-07T00:37:09;2.72;;;1.58;;
20166;SDS011;10243;49.118;8.508;2023-05-07T00:37:30;2.58;;;1.40;;
20166;SDS011;10243;49.118;8.508;2023-05-07T00:37:51;1.60;;;1.50;;
20166;SDS011;10243;49.118;8.508;2023-05-07T00:38:11;1.37;;;1.30;;
20166;SDS011;10243;49.118;8.508;2023-05-07T00:38:31;1.38;;;1.27;;
20166;SDS011;10243;49.118;8.508;2023-05-07T00:38:53;2.40;;;1.50;;
20166;SDS011;10243;49.118;8.508;2023-05-07T00:39:15;2.45;;;1.50;;
20166;SDS011;10243;49.118;8.508;2023-05-07T00:39:35;1.85;;;1.33;;
20166;SDS011;10243;49.118;8.508;2023-05-07T00:39:56;1.50;;;1.33;;
20166;SDS011;10243;49.118;8.508;2023-05-07T00:40:17;1.67;;;1.58;;
20166;SDS011;10243;49.118;8.508;2023-05-07T00:40:38;1.50;;;1.40;;
20166;SDS011;10243;49.118;8.508;2023-05-07T00:40:58;1.55;;;1.45;;
20166;SDS011;10243;49.118;8.508;2023-05-07T00:41:18;1.50;;;1.40;;
20166;SDS011;10243;49.118;8.508;2023-05-07T00:41:40;1.30;;;1.20;;
20166;SDS011;10243;49.118;8.508;2023-05-07T00:42:01;2.55;;;1.33;;
20166;SDS011;10243;49.118;8.508;2023-05-07T00:42:22;3.50;;;1.50;;
20166;SDS011;10243;49.118;8.508;2023-05-07T00:42:44;1.40;;;1.30;;
20166;SDS011;10243;49.118;8.508;2023-05-07T00:43:07;1.50;;;1.40;;
20166;SDS011;10243;49.118;8.508;2023-05-07T00:43:29;1.88;;;1.40;;
20166;SDS011;10243;49.118;8.508;2023-05-07T00:43:49;1.40;;;1.30;;
20166;SDS011;10243;49.118;8.508;2023-05-07T00:44:11;1.33;;;1.23;;
20166;SDS011;10243;49.118;8.508;2023-05-07T00:44:32;1.30;;;1.20;;
20166;SDS011;10243;49.118;8.508;2023-05-07T00:44:52;1.30;;;1.20;;
20166;SDS011;10243;49.118;8.508;2023-05-07T00:45:14;1.40;;;1.30;;
20166;SDS011;10243;49.118;8.508;2023-05-07T00:45:34;1.42;;;1.40;;
20166;SDS011;10243;49.118;8.508;2023-05-07T00:45:55;1.50;;;1.40;;
20166;SDS011;10243;49.118;8.508;2023-05-07T00:46:15;1.55;;;1.45;;
20166;SDS011;10243;49.118;8.508;2023-05-07T00:46:37;1.52;;;1.42;;
20166;SDS011;10243;49.118;8.508;2023-05-07T00:46:58;1.40;;;1.30;;
20166;SDS011;10243;49.118;8.508;2023-05-07T00:47:21;1.70;;;1.42;;
20166;SDS011;10243;49.118;8.508;2023-05-07T00:47:42;1.50;;;1.40;;
20166;SDS011;10243;49.118;8.508;2023-05-07T00:48:02;1.27;;;1.20;;
20166;SDS011;10243;49.118;8.508;2023-05-07T00:48:24;1.38;;;1.27;;
20166;SDS011;10243;49.118;8.508;2023-05-07T00:48:45;1.48;;;1.38;;
20166;SDS011;10243;49.118;8.508;2023-05-07T00:49:05;1.50;;;1.40;;
20166;SDS011;10243;49.118;8.508;2023-05-07T00:49:28;1.60;;;1.50;;
20166;SDS011;10243;49.118;8.508;2023-05-07T00:49:53;1.38;;;1.27;;
20166;SDS011;10243;49.118;8.508;2023-05-07T00:50:14;1.50;;;1.40;;
20166;SDS011;10243;49.118;8.508;2023-05-07T00:50:35;1.37;;;1.27;;
20166;SDS011;10243;49.118;8.508;2023-05-07T00:50:58;1.75;;;1.20;;
20166;SDS011;10243;49.118;8.508;2023-05-07T00:51:18;1.37;;;1.20;;
20166;SDS011;10243;49.118;8.508;2023-05-07T00:51:40;1.98;;;1.23;;
20166;SDS011;10243;49.118;8.508;2023-05-07T00:52:01;2.87;;;1.40;;
20166;SDS011;10243;49.118;8.508;2023-05-07T00:52:21;1.27;;;1.20;;
20166;SDS011;10243;49.118;8.508;2023-05-07T00:52:45;1.48;;;1.38;;
20166;SDS011;10243;49.118;8.508;2023-05-07T00:53:06;1.50;;;1.40;;
20166;SDS011;10243;49.118;8.508;2023-05-07T00:53:27;1.30;;;1.20;;
20166;SDS011;10243;49.118;8.508;2023-05-07T00:53:48;1.80;;;1.40;;
20166;SDS011;10243;49.118;8.508;2023-05-07T00:54:08;1.50;;;1.40;;
20166;SDS011;10243;49.118;8.508;2023-05-07T00:54:31;1.38;;;1.27;;
20166;SDS011;10243;49.118;8.508;2023-05-07T00:54:52;1.33;;;1.23;;
20166;SDS011;10243;49.118;8.508;2023-05-07T00:55:12;1.33;;;1.23;;
20166;SDS011;10243;49.118;8.508;2023-05-07T00:55:34;1.90;;;1.30;;
20166;SDS011;10243;49.118;8.508;2023-05-07T00:55:56;1.70;;;1.60;;
20166;SDS011;10243;49.118;8.508;2023-05-07T00:56:17;1.70;;;1.60;;
20166;SDS011;10243;49.118;8.508;2023-05-07T00:56:38;2.87;;;1.50;;
20166;SDS011;10243;49.118;8.508;2023-05-07T00:56:59;2.13;;;1.40;;
20166;SDS011;10243;49.118;8.508;2023-05-07T00:57:20;1.35;;;1.25;;
20166;SDS011;10243;49.118;8.508;2023-05-07T00:57:41;1.42;;;1.33;;
20166;SDS011;10243;49.118;8.508;2023-05-07T00:58:02;1.53;;;1.43;;
20166;SDS011;10243;49.118;8.508;2023-05-07T00:58:22;1.50;;;1.40;;
20166;SDS011;10243;49.118;8.508;2023-05-07T00:58:44;1.30;;;1.20;;
20166;SDS011;10243;49.118;8.508;2023-05-07T00:59:05;1.58;;;1.48;;
20166;SDS011;10243;49.118;8.508;2023-05-07T00:59:25;1.40;;;1.30;;
20166;SDS011;10243;49.118;8.508;2023-05-07T00:59:46;1.70;;;1.40;;
20166;SDS011;10243;49.118;8.508;2023-05-07T01:00:07;1.60;;;1.50;;
20166;SDS011;10243;49.118;8.508;2023-05-07T01:00:31;1.52;;;1.42;;
20166;SDS011;10243;49.118;8.508;2023-05-07T01:00:51;1.40;;;1.30;;
20166;SDS011;10243;49.118;8.508;2023-05-07T01:01:12;1.50;;;1.40;;
20166;SDS011;10243;49.118;8.508;2023-05-07T01:01:32;1.38;;;1.30;;
20166;SDS011;10243;49.118;8.508;2023-05-07T01:01:53;1.50;;;1.40;;
20166;SDS011;10243;49.118;8.508;2023-05-07T01:02:17;1.50;;;1.40;;
20166;SDS011;10243;49.118;8.508;2023-05-07T01:02:37;1.60;;;1.50;;
20166;SDS011;10243;49.118;8.508;2023-05-07T01:02:58;1.60;;;1.50;;
20166;SDS011;10243;49.118;8.508;2023-05-07T01:03:18;2.40;;;1.40;;
20166;SDS011;10243;49.118;8.508;2023-05-07T01:03:40;2.13;;;1.20;;
20166;SDS011;10243;49.118;8.508;2023-05-07T01:04:00;1.37;;;1.27;;
20166;SDS011;10243;49.118;8.508;2023-05-07T01:04:22;1.52;;;1.42;;
20166;SDS011;10243;49.118;8.508;2023-05-07T01:04:42;1.53;;;1.43;;
20166;SDS011;10243;49.118;8.508;2023-05-07T01:05:03;1.48;;;1.38;;
20166;SDS011;10243;49.118;8.508;2023-05-07T01:05:26;2.95;;;1.38;;
20166;SDS011;10243;49.118;8.508;2023-05-07T01:05:48;1.45;;;1.35;;
20166;SDS011;10243;49.118;8.508;2023-05-07T01:06:08;1.60;;;1.50;;
20166;SDS011;10243;49.118;8.508;2023-05-07T01:06:30;1.33;;;1.25;;
20166;SDS011;10243;49.118;8.508;2023-05-07T01:06:55;1.23;;;1.20;;
20166;SDS011;10243;49.118;8.508;2023-05-07T01:07:17;1.50;;;1.40;;
20166;SDS011;10243;49.118;8.508;2023-05-07T01:07:37;1.30;;;1.23;;
20166;SDS011;10243;49.118;8.508;2023-05-07T01:07:58;1.33;;;1.30;;
20166;SDS011;10243;49.118;8.508;2023-05-07T01:08:19;1.58;;;1.30;;
20166;SDS011;10243;49.118;8.508;2023-05-07T01:08:41;1.40;;;1.30;;
20166;SDS011;10243;49.118;8.508;2023-05-07T01:09:01;1.40;;;1.30;;
20166;SDS011;10243;49.118;8.508;2023-05-07T01:09:24;1.63;;;1.40;;
20166;SDS011;10243;49.118;8.508;2023-05-07T01:09:47;1.67;;;1.30;;
20166;SDS011;10243;49.118;8.508;2023-05-07T01:10:07;1.50;;;1.40;;
20166;SDS011;10243;49.118;8.508;2023-05-07T01:10:29;2.08;;;1.30;;
20166;SDS011;10243;49.118;8.508;2023-05-07T01:10:50;2.30;;;1.40;;
20166;SDS011;10243;49.118;8.508;2023-05-07T01:11:11;1.60;;;1.40;;
20166;SDS011;10243;49.118;8.508;2023-05-07T01:11:32;1.20;;;1.10;;
20166;SDS011;10243;49.118;8.508;2023-05-07T01:11:52;1.42;;;1.35;;
20166;SDS011;10243;49.118;8.508;2023-05-07T01:12:14;1.55;;;1.33;;
20166;SDS011;10243;49.118;8.508;2023-05-07T01:12:35;1.30;;;1.20;;
20166;SDS011;10243;49.118;8.508;2023-05-07T01:12:57;1.50;;;1.30;;
20166;SDS011;10243;49.118;8.508;2023-05-07T01:13:17;1.50;;;1.40;;
20166;SDS011;10243;49.118;8.508;2023-05-07T01:13:39;1.33;;;1.23;;
20166;SDS011;10243;49.118;8.508;2023-05-07T01:14:00;1.40;;;1.30;;
20166;SDS011;10243;49.118;8.508;2023-05-07T01:14:21;1.40;;;1.30;;
20166;SDS011;10243;49.118;8.508;2023-05-07T01:14:42;1.37;;;1.27;;
20166;SDS011;10243;49.118;8.508;2023-05-07T01:15:02;1.30;;;1.20;;
20166;SDS011;10243;49.118;8.508;2023-05-07T01:15:24;1.10;;;1.05;;
20166;SDS011;10243;49.118;8.508;2023-05-07T01:15:44;1.60;;;1.50;;
20166;SDS011;10243;49.118;8.508;2023-05-07T01:16:05;1.88;;;1.67;;
20166;SDS011;10243;49.118;8.508;2023-05-07T01:16:26;1.73;;;1.63;;
20166;SDS011;10243;49.118;8.508;2023-05-07T01:16:48;1.67;;;1.58;;
20166;SDS011;10243;49.118;8.508;2023-05-07T01:17:09;1.50;;;1.40;;
20166;SDS011;10243;49.118;8.508;2023-05-07T01:17:30;1.60;;;1.50;;
20166;SDS011;10243;49.118;8.508;2023-05-07T01:17:53;1.60;;;1.50;;
20166;SDS011;10243;49.118;8.508;2023-05-07T01:18:22;1.73;;;1.63;;
20166;SDS011;10243;49.118;8.508;2023-05-07T01:18:43;1.53;;;1.43;;
20166;SDS011;10243;49.118;8.508;2023-05-07T01:19:05;1.55;;;1.45;;
20166;SDS011;10243;49.118;8.508;2023-05-07T01:19:28;1.40;;;1.30;;
20166;SDS011;10243;49.118;8.508;2023-05-07T01:19:50;1.70;;;1.60;;
20166;SDS011;10243;49.118;8.508;2023-05-07T01:20:13;1.40;;;1.30;;
20166;SDS011;10243;49.118;8.508;2023-05-07T01:20:34;1.65;;;1.55;;
20166;SDS011;10243;49.118;8.508;2023-05-07T01:20:58;1.50;;;1.40;;
20166;SDS011;10243;49.118;8.508;2023-05-07T01:21:18;1.60;;;1.50;;
20166;SDS011;10243;49.118;8.508;2023-05-07T01:21:48;1.50;;;1.40;;
20166;SDS011;10243;49.118;8.508;2023-05-07T01:22:10;1.52;;;1.42;;
20166;SDS011;10243;49.118;8.508;2023-05-07T01:22:42;1.60;;;1.50;;
20166;SDS011;10243;49.118;8.508;2023-05-07T01:23:03;2.10;;;1.80;;
20166;SDS011;10243;49.118;8.508;2023-05-07T01:23:25;1.67;;;1.58;;
20166;SDS011;10243;49.118;8.508;2023-05-07T01:23:47;1.70;;;1.60;;
20166;SDS011;10243;49.118;8.508;2023-05-07T01:24:08;1.60;;;1.50;;
20166;SDS011;10243;49.118;8.508;2023-05-07T01:24:29;1.70;;;1.60;;
20166;SDS011;10243;49.118;8.508;2023-05-07T01:24:50;1.80;;;1.70;;
20166;SDS011;10243;49.118;8.508;2023-05-07T01:25:12;1.85;;;1.75;;
20166;SDS011;10243;49.118;8.508;2023-05-07T01:25:37;1.73;;;1.63;;
20166;SDS011;10243;49.118;8.508;2023-05-07T01:25:58;1.80;;;1.70;;
20166;SDS011;10243;49.118;8.508;2023-05-07T01:26:20;1.70;;;1.58;;
20166;SDS011;10243;49.118;8.508;2023-05-07T01:26:43;1.92;;;1.60;;
20166;SDS011;10243;49.118;8.508;2023-05-07T01:27:06;1.75;;;1.65;;
20166;SDS011;10243;49.118;8.508;2023-05-07T01:27:27;1.70;;;1.60;;
20166;SDS011;10243;49.118;8.508;2023-05-07T01:27:48;1.50;;;1.40;;
20166;SDS011;10243;49.118;8.508;2023-05-07T01:28:09;1.60;;;1.50;;
20166;SDS011;10243;49.118;8.508;2023-05-07T01:28:35;1.65;;;1.55;;
20166;SDS011;10243;49.118;8.508;2023-05-07T01:28:56;1.90;;;1.80;;
20166;SDS011;10243;49.118;8.508;2023-05-07T01:29:16;1.67;;;1.53;;
20166;SDS011;10243;49.118;8.508;2023-05-07T01:29:38;1.40;;;1.30;;
20166;SDS011;10243;49.118;8.508;2023-05-07T01:30:02;1.60;;;1.50;;
20166;SDS011;10243;49.118;8.508;2023-05-07T01:30:23;1.60;;;1.50;;
20166;SDS011;10243;49.118;8.508;2023-05-07T01:30:44;2.60;;;1.52;;
20166;SDS011;10243;49.118;8.508;2023-05-07T01:31:07;1.55;;;1.45;;
20166;SDS011;10243;49.118;8.508;2023-05-07T01:31:28;2.05;;;1.40;;
20166;SDS011;10243;49.118;8.508;2023-05-07T01:31:49;1.70;;;1.60;;
20166;SDS011;10243;49.118;8.508;2023-05-07T01:32:10;1.63;;;1.52;;
20166;SDS011;10243;49.118;8.508;2023-05-07T01:32:32;1.50;;;1.40;;
20166;SDS011;10243;49.118;8.508;2023-05-07T01:32:57;1.60;;;1.50;;
20166;SDS011;10243;49.118;8.508;2023-05-07T01:33:19;1.70;;;1.60;;
20166;SDS011;10243;49.118;8.508;2023-05-07T01:33:41;1.77;;;1.67;;
20166;SDS011;10243;49.118;8.508;2023-05-07T01:34:04;1.50;;;1.40;;
20166;SDS011;10243;49.118;8.508;2023-05-07T01:34:27;1.45;;;1.35;;
20166;SDS011;10243;49.118;8.508;2023-05-07T01:34:48;1.70;;;1.60;;
20166;SDS011;10243;49.118;8.508;2023-05-07T01:35:10;1.70;;;1.60;;
20166;SDS011;10243;49.118;8.508;2023-05-07T01:35:32;1.77;;;1.48;;
20166;SDS011;10243;49.118;8.508;2023-05-07T01:35:54;1.90;;;1.42;;
20166;SDS011;10243;49.118;8.508;2023-05-07T01:36:16;1.63;;;1.50;;
20166;SDS011;10243;49.118;8.508;2023-05-07T01:36:37;1.42;;;1.30;;
20166;SDS011;10243;49.118;8.508;2023-05-07T01:36:59;2.38;;;1.60;;
20166;SDS011;10243;49.118;8.508;2023-05-07T01:37:19;1.80;;;1.70;;
20166;SDS011;10243;49.118;8.508;2023-05-07T01:37:41;1.70;;;1.60;;
20166;SDS011;10243;49.118;8.508;2023-05-07T01:38:02;1.60;;;1.40;;
20166;SDS011;10243;49.118;8.508;2023-05-07T01:38:24;2.25;;;1.60;;
20166;SDS011;10243;49.118;8.508;2023-05-07T01:38:45;1.65;;;1.52;;
20166;SDS011;10243;49.118;8.508;2023-05-07T01:39:05;1.63;;;1.53;;
20166;SDS011;10243;49.118;8.508;2023-05-07T01:39:27;1.67;;;1.58;;
20166;SDS011;10243;49.118;8.508;2023-05-07T01:39:48;1.58;;;1.48;;
20166;SDS011;10243;49.118;8.508;2023-05-07T01:40:09;1.60;;;1.50;;
20166;SDS011;10243;49.118;8.508;2023-05-07T01:40:30;1.80;;;1.70;;
20166;SDS011;10243;49.118;8.508;2023-05-07T01:40:50;2.27;;;1.63;;
20166;SDS011;10243;49.118;8.508;2023-05-07T01:41:11;1.65;;;1.55;;
20166;SDS011;10243;49.118;8.508;2023-05-07T01:41:32;1.63;;;1.52;;
20166;SDS011;10243;49.118;8.508;2023-05-07T01:41:53;1.73;;;1.50;;
20166;SDS011;10243;49.118;8.508;2023-05-07T01:42:18;1.60;;;1.50;;
20166;SDS011;10243;49.118;8.508;2023-05-07T01:42:39;2.20;;;1.50;;
20166;SDS011;10243;49.118;8.508;2023-05-07T01:43:00;1.83;;;1.45;;
20166;SDS011;10243;49.118;8.508;2023-05-07T01:43:21;1.60;;;1.50;;
20166;SDS011;10243;49.118;8.508;2023-05-07T01:43:42;1.88;;;1.60;;
20166;SDS011;10243;49.118;8.508;2023-05-07T01:44:03;2.43;;;1.53;;
20166;SDS011;10243;49.118;8.508;2023-05-07T01:44:23;2.40;;;1.63;;
20166;SDS011;10243;49.118;8.508;2023-05-07T01:44:44;2.45;;;1.50;;
20166;SDS011;10243;49.118;8.508;2023-05-07T01:45:06;1.60;;;1.50;;
20166;SDS011;10243;49.118;8.508;2023-05-07T01:45:27;1.50;;;1.40;;
20166;SDS011;10243;49.118;8.508;2023-05-07T01:45:47;1.60;;;1.50;;
20166;SDS011;10243;49.118;8.508;2023-05-07T01:46:09;1.58;;;1.48;;
20166;SDS011;10243;49.118;8.508;2023-05-07T01:46:31;1.70;;;1.60;;
20166;SDS011;10243;49.118;8.508;2023-05-07T01:46:52;1.75;;;1.65;;
20166;SDS011;10243;49.118;8.508;2023-05-07T01:47:13;1.95;;;1.75;;
20166;SDS011;10243;49.118;8.508;2023-05-07T01:47:34;1.80;;;1.70;;
20166;SDS011;10243;49.118;8.508;2023-05-07T01:47:56;1.67;;;1.58;;
20166;SDS011;10243;49.118;8.508;2023-05-07T01:48:18;1.67;;;1.58;;
20166;SDS011;10243;49.118;8.508;2023-05-07T01:48:38;1.77;;;1.67;;
20166;SDS011;10243;49.118;8.508;2023-05-07T01:48:59;1.83;;;1.60;;
20166;SDS011;10243;49.118;8.508;2023-05-07T01:49:19;1.30;;;1.30;;
20166;SDS011;10243;49.118;8.508;2023-05-07T01:49:40;1.50;;;1.40;;
20166;SDS011;10243;49.118;8.508;2023-05-07T01:50:02;1.60;;;1.50;;
20166;SDS011;10243;49.118;8.508;2023-05-07T01:50:22;1.60;;;1.50;;
20166;SDS011;10243;49.118;8.508;2023-05-07T01:50:43;1.70;;;1.60;;
20166;SDS011;10243;49.118;8.508;2023-05-07T01:51:04;1.70;;;1.60;;
20166;SDS011;10243;49.118;8.508;2023-05-07T01:51:26;1.70;;;1.60;;
20166;SDS011;10243;49.118;8.508;2023-05-07T01:51:48;1.70;;;1.60;;
20166;SDS011;10243;49.118;8.508;2023-05-07T01:52:09;1.60;;;1.50;;
20166;SDS011;10243;49.118;8.508;2023-05-07T01:52:30;1.80;;;1.70;;
20166;SDS011;10243;49.118;8.508;2023-05-07T01:52:52;1.67;;;1.58;;
20166;SDS011;10243;49.118;8.508;2023-05-07T01:53:14;1.75;;;1.65;;
20166;SDS011;10243;49.118;8.508;2023-05-07T01:53:35;1.50;;;1.40;;
20166;SDS011;10243;49.118;8.508;2023-05-07T01:53:56;1.60;;;1.50;;
20166;SDS011;10243;49.118;8.508;2023-05-07T01:54:17;1.60;;;1.50;;
20166;SDS011;10243;49.118;8.508;2023-05-07T01:54:39;1.50;;;1.40;;
20166;SDS011;10243;49.118;8.508;2023-05-07T01:55:00;1.40;;;1.30;;
20166;SDS011;10243;49.118;8.508;2023-05-07T01:55:21;1.40;;;1.30;;
20166;SDS011;10243;49.118;8.508;2023-05-07T01:55:41;1.42;;;1.33;;
20166;SDS011;10243;49.118;8.508;2023-05-07T01:56:02;1.30;;;1.20;;
20166;SDS011;10243;49.118;8.508;2023-05-07T01:56:24;1.40;;;1.30;;
20166;SDS011;10243;49.118;8.508;2023-05-07T01:56:45;1.48;;;1.38;;
20166;SDS011;10243;49.118;8.508;2023-05-07T01:57:08;1.40;;;1.30;;
20166;SDS011;10243;49.118;8.508;2023-05-07T01:57:31;1.60;;;1.50;;
20166;SDS011;10243;49.118;8.508;2023-05-07T01:57:55;1.77;;;1.67;;
20166;SDS011;10243;49.118;8.508;2023-05-07T01:58:16;1.55;;;1.45;;
20166;SDS011;10243;49.118;8.508;2023-05-07T01:58:36;1.50;;;1.40;;
20166;SDS011;10243;49.118;8.508;2023-05-07T01:58:57;1.65;;;1.55;;
20166;SDS011;10243;49.118;8.508;2023-05-07T01:59:17;1.60;;;1.50;;
20166;SDS011;10243;49.118;8.508;2023-05-07T01:59:39;1.65;;;1.55;;
20166;SDS011;10243;49.118;8.508;2023-05-07T01:59:59;1.55;;;1.45;;
20166;SDS011;10243;49.118;8.508;2023-05-07T02:00:20;1.60;;;1.50;;
20166;SDS011;10243;49.118;8.508;2023-05-07T02:00:40;1.50;;;1.40;;
20166;SDS011;10243;49.118;8.508;2023-05-07T02:01:02;2.45;;;1.50;;
20166;SDS011;10243;49.118;8.508;2023-05-07T02:01:23;2.40;;;1.55;;
20166;SDS011;10243;49.118;8.508;2023-05-07T02:01:43;1.70;;;1.60;;
20166;SDS011;10243;49.118;8.508;2023-05-07T02:02:05;2.60;;;1.60;;
20166;SDS011;10243;49.118;8.508;2023-05-07T02:02:28;2.33;;;1.63;;
20166;SDS011;10243;49.118;8.508;2023-05-07T02:02:50;1.67;;;1.58;;
20166;SDS011;10243;49.118;8.508;2023-05-07T02:03:33;1.73;;;1.63;;
20166;SDS011;10243;49.118;8.508;2023-05-07T02:04:03;1.70;;;1.60;;
20166;SDS011;10243;49.118;8.508;2023-05-07T02:04:25;1.60;;;1.50;;
20166;SDS011;10243;49.118;8.508;2023-05-07T02:04:47;1.60;;;1.50;;
20166;SDS011;10243;49.118;8.508;2023-05-07T02:05:09;2.00;;;1.40;;
20166;SDS011;10243;49.118;8.508;2023-05-07T02:05:31;1.50;;;1.40;;
20166;SDS011;10243;49.118;8.508;2023-05-07T02:05:57;1.60;;;1.50;;
20166;SDS011;10243;49.118;8.508;2023-05-07T02:06:35;1.60;;;1.50;;
20166;SDS011;10243;49.118;8.508;2023-05-07T02:06:58;1.60;;;1.50;;
20166;SDS011;10243;49.118;8.508;2023-05-07T02:07:19;1.73;;;1.63;;
20166;SDS011;10243;49.118;8.508;2023-05-07T02:07:41;1.70;;;1.60;;
20166;SDS011;10243;49.118;8.508;2023-05-07T02:08:03;1.77;;;1.67;;
20166;SDS011;10243;49.118;8.508;2023-05-07T02:08:25;1.67;;;1.58;;
20166;SDS011;10243;49.118;8.508;2023-05-07T02:08:45;1.50;;;1.40;;
20166;SDS011;10243;49.118;8.508;2023-05-07T02:09:07;1.60;;;1.50;;
20166;SDS011;10243;49.118;8.508;2023-05-07T02:09:29;1.55;;;1.45;;